sensor_id;sensor_type;location;lat;lon;timestamp;P1;durP1;ratioP1;P2;durP2;ratioP2
16478;SDS011;8350;52.316;10.530;2023-05-19T00:00:57;7.78;;;3.30;;
16478;SDS011;8350;52.316;10.530;2023-05-19T00:03:26;8.77;;;3.55;;
16478;SDS011;8350;52.316;10.530;2023-05-19T00:05:55;6.43;;;3.33;;
16478;SDS011;8350;52.316;10.530;2023-05-19T00:08:23;8.50;;;3.50;;
16478;SDS011;8350;52.316;10.530;2023-05-19T00:10:51;6.95;;;3.15;;
16478;SDS011;8350;52.316;10.530;2023-05-19T00:13:18;7.00;;;3.60;;
16478;SDS011;8350;52.316;10.530;2023-05-19T00:15:46;7.55;;;3.53;;
16478;SDS011;8350;52.316;10.530;2023-05-19T00:18:13;5.70;;;3.67;;
16478;SDS011;8350;52.316;10.530;2023-05-19T00:20:43;6.82;;;3.05;;
16478;SDS011;8350;52.316;10.530;2023-05-19T00:23:09;6.47;;;3.72;;
16478;SDS011;8350;52.316;10.530;2023-05-19T00:25:36;6.55;;;3.15;;
16478;SDS011;8350;52.316;10.530;2023-05-19T00:28:03;4.53;;;3.47;;
16478;SDS011;8350;52.316;10.530;2023-05-19T00:30:31;5.40;;;3.45;;
16478;SDS011;8350;52.316;10.530;2023-05-19T00:32:58;4.60;;;3.67;;
16478;SDS011;8350;52.316;10.530;2023-05-19T00:35:25;5.03;;;3.70;;
16478;SDS011;8350;52.316;10.530;2023-05-19T00:37:54;6.47;;;3.50;;
16478;SDS011;8350;52.316;10.530;2023-05-19T00:40:21;8.40;;;4.43;;
16478;SDS011;8350;52.316;10.530;2023-05-19T00:42:49;7.82;;;3.90;;
16478;SDS011;8350;52.316;10.530;2023-05-19T00:45:16;6.47;;;3.65;;
16478;SDS011;8350;52.316;10.530;2023-05-19T00:47:46;7.18;;;3.95;;
16478;SDS011;8350;52.316;10.530;2023-05-19T00:50:14;4.53;;;3.38;;
16478;SDS011;8350;52.316;10.530;2023-05-19T00:52:40;7.45;;;3.90;;
16478;SDS011;8350;52.316;10.530;2023-05-19T00:55:10;6.15;;;3.92;;
16478;SDS011;8350;52.316;10.530;2023-05-19T00:57:38;5.38;;;3.75;;
16478;SDS011;8350;52.316;10.530;2023-05-19T01:00:05;7.05;;;4.18;;
16478;SDS011;8350;52.316;10.530;2023-05-19T01:02:33;6.55;;;3.92;;
16478;SDS011;8350;52.316;10.530;2023-05-19T01:05:02;6.57;;;3.75;;
16478;SDS011;8350;52.316;10.530;2023-05-19T01:07:31;8.00;;;4.68;;
16478;SDS011;8350;52.316;10.530;2023-05-19T01:09:58;8.30;;;4.43;;
16478;SDS011;8350;52.316;10.530;2023-05-19T01:12:27;4.95;;;3.47;;
16478;SDS011;8350;52.316;10.530;2023-05-19T01:14:55;8.80;;;4.80;;
16478;SDS011;8350;52.316;10.530;2023-05-19T01:17:25;5.47;;;3.97;;
16478;SDS011;8350;52.316;10.530;2023-05-19T01:19:59;7.30;;;4.15;;
16478;SDS011;8350;52.316;10.530;2023-05-19T01:22:39;6.97;;;4.18;;
16478;SDS011;8350;52.316;10.530;2023-05-19T01:25:33;9.23;;;4.43;;
16478;SDS011;8350;52.316;10.530;2023-05-19T01:31:21;9.05;;;4.63;;
16478;SDS011;8350;52.316;10.530;2023-05-19T01:33:51;9.38;;;4.75;;
16478;SDS011;8350;52.316;10.530;2023-05-19T01:36:19;7.45;;;5.28;;
16478;SDS011;8350;52.316;10.530;2023-05-19T01:38:48;10.43;;;5.00;;
16478;SDS011;8350;52.316;10.530;2023-05-19T01:41:19;8.68;;;4.57;;
16478;SDS011;8350;52.316;10.530;2023-05-19T01:43:47;6.25;;;4.45;;
16478;SDS011;8350;52.316;10.530;2023-05-19T01:46:15;6.93;;;4.57;;
16478;SDS011;8350;52.316;10.530;2023-05-19T01:48:45;6.53;;;4.63;;
16478;SDS011;8350;52.316;10.530;2023-05-19T01:51:16;6.05;;;4.47;;
16478;SDS011;8350;52.316;10.530;2023-05-19T01:53:43;5.35;;;4.50;;
16478;SDS011;8350;52.316;10.530;2023-05-19T01:56:10;8.10;;;4.60;;
16478;SDS011;8350;52.316;10.530;2023-05-19T01:58:43;5.15;;;4.32;;
16478;SDS011;8350;52.316;10.530;2023-05-19T02:01:15;6.72;;;4.60;;
16478;SDS011;8350;52.316;10.530;2023-05-19T02:03:52;10.07;;;4.95;;
16478;SDS011;8350;52.316;10.530;2023-05-19T02:06:29;11.40;;;4.63;;
16478;SDS011;8350;52.316;10.530;2023-05-19T02:09:02;10.85;;;4.80;;
16478;SDS011;8350;52.316;10.530;2023-05-19T02:11:35;6.20;;;4.90;;
16478;SDS011;8350;52.316;10.530;2023-05-19T02:14:07;4.53;;;4.13;;
16478;SDS011;8350;52.316;10.530;2023-05-19T02:16:37;9.48;;;4.65;;
16478;SDS011;8350;52.316;10.530;2023-05-19T02:19:07;8.07;;;4.75;;
16478;SDS011;8350;52.316;10.530;2023-05-19T02:21:45;7.40;;;4.47;;
16478;SDS011;8350;52.316;10.530;2023-05-19T02:24:12;8.45;;;4.32;;
16478;SDS011;8350;52.316;10.530;2023-05-19T02:26:40;8.35;;;4.43;;
16478;SDS011;8350;52.316;10.530;2023-05-19T02:29:07;4.10;;;3.70;;
16478;SDS011;8350;52.316;10.530;2023-05-19T02:31:34;6.32;;;4.03;;
16478;SDS011;8350;52.316;10.530;2023-05-19T02:34:01;5.25;;;3.83;;
16478;SDS011;8350;52.316;10.530;2023-05-19T02:36:34;6.28;;;4.28;;
16478;SDS011;8350;52.316;10.530;2023-05-19T02:39:02;5.55;;;3.90;;
16478;SDS011;8350;52.316;10.530;2023-05-19T02:41:29;7.00;;;3.83;;
16478;SDS011;8350;52.316;10.530;2023-05-19T02:43:56;6.70;;;3.65;;
16478;SDS011;8350;52.316;10.530;2023-05-19T02:46:24;9.50;;;3.67;;
16478;SDS011;8350;52.316;10.530;2023-05-19T02:48:51;5.85;;;3.33;;
16478;SDS011;8350;52.316;10.530;2023-05-19T02:51:18;8.07;;;3.60;;
16478;SDS011;8350;52.316;10.530;2023-05-19T02:53:46;7.60;;;3.97;;
16478;SDS011;8350;52.316;10.530;2023-05-19T02:56:13;9.57;;;3.60;;
16478;SDS011;8350;52.316;10.530;2023-05-19T02:58:40;6.18;;;3.60;;
16478;SDS011;8350;52.316;10.530;2023-05-19T03:01:08;7.18;;;3.95;;
16478;SDS011;8350;52.316;10.530;2023-05-19T03:03:36;6.60;;;3.67;;
16478;SDS011;8350;52.316;10.530;2023-05-19T03:06:03;8.23;;;4.00;;
16478;SDS011;8350;52.316;10.530;2023-05-19T03:08:32;5.78;;;3.72;;
16478;SDS011;8350;52.316;10.530;2023-05-19T03:11:01;4.38;;;3.40;;
16478;SDS011;8350;52.316;10.530;2023-05-19T03:13:28;8.27;;;4.18;;
16478;SDS011;8350;52.316;10.530;2023-05-19T03:15:55;6.95;;;3.85;;
16478;SDS011;8350;52.316;10.530;2023-05-19T03:18:23;7.65;;;3.50;;
16478;SDS011;8350;52.316;10.530;2023-05-19T03:20:51;8.48;;;3.67;;
16478;SDS011;8350;52.316;10.530;2023-05-19T03:23:18;7.63;;;3.60;;
16478;SDS011;8350;52.316;10.530;2023-05-19T03:25:46;7.03;;;3.33;;
16478;SDS011;8350;52.316;10.530;2023-05-19T03:28:15;7.80;;;3.42;;
16478;SDS011;8350;52.316;10.530;2023-05-19T03:30:43;5.00;;;3.05;;
16478;SDS011;8350;52.316;10.530;2023-05-19T03:33:10;5.95;;;3.47;;
16478;SDS011;8350;52.316;10.530;2023-05-19T03:35:36;4.53;;;3.33;;
16478;SDS011;8350;52.316;10.530;2023-05-19T03:38:04;5.65;;;3.35;;
16478;SDS011;8350;52.316;10.530;2023-05-19T03:40:31;4.30;;;3.13;;
16478;SDS011;8350;52.316;10.530;2023-05-19T03:42:58;6.65;;;3.83;;
16478;SDS011;8350;52.316;10.530;2023-05-19T03:45:26;5.32;;;4.03;;
16478;SDS011;8350;52.316;10.530;2023-05-19T03:47:53;10.13;;;3.83;;
16478;SDS011;8350;52.316;10.530;2023-05-19T03:50:21;6.95;;;4.40;;
16478;SDS011;8350;52.316;10.530;2023-05-19T03:52:48;8.63;;;3.80;;
16478;SDS011;8350;52.316;10.530;2023-05-19T03:55:15;6.88;;;3.58;;
16478;SDS011;8350;52.316;10.530;2023-05-19T03:57:45;4.13;;;3.45;;
16478;SDS011;8350;52.316;10.530;2023-05-19T04:00:12;5.45;;;3.28;;
16478;SDS011;8350;52.316;10.530;2023-05-19T04:02:50;5.18;;;3.75;;
16478;SDS011;8350;52.316;10.530;2023-05-19T04:05:17;6.25;;;3.58;;
16478;SDS011;8350;52.316;10.530;2023-05-19T04:07:44;4.72;;;3.78;;
16478;SDS011;8350;52.316;10.530;2023-05-19T04:10:12;6.90;;;3.90;;
16478;SDS011;8350;52.316;10.530;2023-05-19T04:12:40;8.32;;;4.10;;
16478;SDS011;8350;52.316;10.530;2023-05-19T04:15:07;6.32;;;3.97;;
16478;SDS011;8350;52.316;10.530;2023-05-19T04:17:36;7.00;;;3.92;;
16478;SDS011;8350;52.316;10.530;2023-05-19T04:20:05;5.35;;;3.67;;
16478;SDS011;8350;52.316;10.530;2023-05-19T04:22:34;4.75;;;3.55;;
16478;SDS011;8350;52.316;10.530;2023-05-19T04:25:01;6.85;;;3.97;;
16478;SDS011;8350;52.316;10.530;2023-05-19T04:27:29;4.70;;;3.97;;
16478;SDS011;8350;52.316;10.530;2023-05-19T04:30:03;6.97;;;4.13;;
16478;SDS011;8350;52.316;10.530;2023-05-19T04:32:30;8.50;;;4.15;;
16478;SDS011;8350;52.316;10.530;2023-05-19T04:35:00;5.68;;;4.05;;
16478;SDS011;8350;52.316;10.530;2023-05-19T04:37:28;9.23;;;4.35;;
16478;SDS011;8350;52.316;10.530;2023-05-19T04:39:55;5.50;;;3.97;;
16478;SDS011;8350;52.316;10.530;2023-05-19T04:42:22;6.75;;;3.75;;
16478;SDS011;8350;52.316;10.530;2023-05-19T04:44:50;6.72;;;3.35;;
16478;SDS011;8350;52.316;10.530;2023-05-19T04:47:19;6.75;;;3.95;;
16478;SDS011;8350;52.316;10.530;2023-05-19T04:49:54;6.28;;;3.80;;
16478;SDS011;8350;52.316;10.530;2023-05-19T04:52:21;6.95;;;3.13;;
16478;SDS011;8350;52.316;10.530;2023-05-19T04:54:49;5.28;;;3.50;;
16478;SDS011;8350;52.316;10.530;2023-05-19T04:57:16;7.50;;;3.50;;
16478;SDS011;8350;52.316;10.530;2023-05-19T04:59:43;5.53;;;3.78;;
16478;SDS011;8350;52.316;10.530;2023-05-19T05:02:11;7.90;;;3.83;;
16478;SDS011;8350;52.316;10.530;2023-05-19T05:04:38;4.70;;;3.17;;
16478;SDS011;8350;52.316;10.530;2023-05-19T05:07:07;4.50;;;3.35;;
16478;SDS011;8350;52.316;10.530;2023-05-19T05:09:34;7.55;;;4.03;;
16478;SDS011;8350;52.316;10.530;2023-05-19T05:12:03;5.05;;;3.40;;
16478;SDS011;8350;52.316;10.530;2023-05-19T05:14:32;5.53;;;3.35;;
16478;SDS011;8350;52.316;10.530;2023-05-19T05:16:59;6.85;;;3.67;;
16478;SDS011;8350;52.316;10.530;2023-05-19T05:19:27;7.32;;;4.10;;
16478;SDS011;8350;52.316;10.530;2023-05-19T05:21:55;7.13;;;3.72;;
16478;SDS011;8350;52.316;10.530;2023-05-19T05:24:23;9.60;;;3.25;;
16478;SDS011;8350;52.316;10.530;2023-05-19T05:26:50;6.47;;;2.92;;
16478;SDS011;8350;52.316;10.530;2023-05-19T05:29:19;3.83;;;3.13;;
16478;SDS011;8350;52.316;10.530;2023-05-19T05:31:46;5.30;;;2.90;;
16478;SDS011;8350;52.316;10.530;2023-05-19T05:34:13;7.20;;;3.05;;
16478;SDS011;8350;52.316;10.530;2023-05-19T05:36:40;6.22;;;3.58;;
16478;SDS011;8350;52.316;10.530;2023-05-19T05:39:10;5.72;;;2.92;;
16478;SDS011;8350;52.316;10.530;2023-05-19T05:41:37;4.28;;;2.63;;
16478;SDS011;8350;52.316;10.530;2023-05-19T05:44:05;5.18;;;2.90;;
16478;SDS011;8350;52.316;10.530;2023-05-19T05:46:33;6.90;;;2.83;;
16478;SDS011;8350;52.316;10.530;2023-05-19T05:49:00;6.43;;;2.65;;
16478;SDS011;8350;52.316;10.530;2023-05-19T05:51:28;6.82;;;3.20;;
16478;SDS011;8350;52.316;10.530;2023-05-19T05:53:56;7.38;;;3.30;;
16478;SDS011;8350;52.316;10.530;2023-05-19T05:56:27;4.97;;;2.60;;
16478;SDS011;8350;52.316;10.530;2023-05-19T05:58:57;6.75;;;2.95;;
16478;SDS011;8350;52.316;10.530;2023-05-19T06:01:24;3.33;;;2.30;;
16478;SDS011;8350;52.316;10.530;2023-05-19T06:03:53;6.00;;;3.15;;
16478;SDS011;8350;52.316;10.530;2023-05-19T06:06:21;6.50;;;2.65;;
16478;SDS011;8350;52.316;10.530;2023-05-19T06:08:48;6.95;;;2.80;;
16478;SDS011;8350;52.316;10.530;2023-05-19T06:11:14;4.63;;;2.55;;
16478;SDS011;8350;52.316;10.530;2023-05-19T06:13:41;4.65;;;2.42;;
16478;SDS011;8350;52.316;10.530;2023-05-19T06:16:08;5.72;;;3.08;;
16478;SDS011;8350;52.316;10.530;2023-05-19T06:18:36;5.05;;;2.83;;
16478;SDS011;8350;52.316;10.530;2023-05-19T06:21:04;4.55;;;2.65;;
16478;SDS011;8350;52.316;10.530;2023-05-19T06:23:35;7.68;;;2.90;;
16478;SDS011;8350;52.316;10.530;2023-05-19T06:26:02;6.85;;;3.15;;
16478;SDS011;8350;52.316;10.530;2023-05-19T06:28:29;4.35;;;2.65;;
16478;SDS011;8350;52.316;10.530;2023-05-19T06:30:59;6.15;;;3.05;;
16478;SDS011;8350;52.316;10.530;2023-05-19T06:33:27;4.82;;;3.03;;
16478;SDS011;8350;52.316;10.530;2023-05-19T06:35:53;5.60;;;2.75;;
16478;SDS011;8350;52.316;10.530;2023-05-19T06:38:22;6.43;;;2.80;;
16478;SDS011;8350;52.316;10.530;2023-05-19T06:40:51;6.05;;;2.65;;
16478;SDS011;8350;52.316;10.530;2023-05-19T06:43:18;5.95;;;2.53;;
16478;SDS011;8350;52.316;10.530;2023-05-19T06:45:45;4.65;;;2.58;;
16478;SDS011;8350;52.316;10.530;2023-05-19T06:48:11;5.00;;;2.90;;
16478;SDS011;8350;52.316;10.530;2023-05-19T06:50:38;5.82;;;2.35;;
16478;SDS011;8350;52.316;10.530;2023-05-19T06:53:05;5.00;;;2.63;;
16478;SDS011;8350;52.316;10.530;2023-05-19T06:55:34;3.85;;;2.40;;
16478;SDS011;8350;52.316;10.530;2023-05-19T06:58:01;3.75;;;2.78;;
16478;SDS011;8350;52.316;10.530;2023-05-19T07:00:28;5.40;;;2.50;;
16478;SDS011;8350;52.316;10.530;2023-05-19T07:02:55;5.18;;;2.17;;
16478;SDS011;8350;52.316;10.530;2023-05-19T07:05:22;4.10;;;2.38;;
16478;SDS011;8350;52.316;10.530;2023-05-19T07:07:49;7.20;;;2.65;;
16478;SDS011;8350;52.316;10.530;2023-05-19T07:10:16;5.05;;;2.65;;
16478;SDS011;8350;52.316;10.530;2023-05-19T07:12:46;4.03;;;2.38;;
16478;SDS011;8350;52.316;10.530;2023-05-19T07:15:13;5.13;;;1.98;;
16478;SDS011;8350;52.316;10.530;2023-05-19T07:17:40;4.57;;;2.30;;
16478;SDS011;8350;52.316;10.530;2023-05-19T07:20:08;4.38;;;2.40;;
16478;SDS011;8350;52.316;10.530;2023-05-19T07:22:36;3.63;;;2.40;;
16478;SDS011;8350;52.316;10.530;2023-05-19T07:25:03;5.63;;;2.20;;
16478;SDS011;8350;52.316;10.530;2023-05-19T07:27:32;4.05;;;2.40;;
16478;SDS011;8350;52.316;10.530;2023-05-19T07:30:01;4.78;;;2.40;;
16478;SDS011;8350;52.316;10.530;2023-05-19T07:32:29;3.85;;;2.00;;
16478;SDS011;8350;52.316;10.530;2023-05-19T07:34:56;5.00;;;2.08;;
16478;SDS011;8350;52.316;10.530;2023-05-19T07:37:23;4.47;;;2.15;;
16478;SDS011;8350;52.316;10.530;2023-05-19T07:39:50;3.85;;;1.60;;
16478;SDS011;8350;52.316;10.530;2023-05-19T07:42:17;3.83;;;2.17;;
16478;SDS011;8350;52.316;10.530;2023-05-19T07:44:45;4.22;;;2.40;;
16478;SDS011;8350;52.316;10.530;2023-05-19T07:47:16;4.60;;;2.10;;
16478;SDS011;8350;52.316;10.530;2023-05-19T07:49:43;3.08;;;2.03;;
16478;SDS011;8350;52.316;10.530;2023-05-19T07:52:10;4.18;;;1.70;;
16478;SDS011;8350;52.316;10.530;2023-05-19T07:54:37;4.00;;;1.90;;
16478;SDS011;8350;52.316;10.530;2023-05-19T07:57:04;4.28;;;2.03;;
16478;SDS011;8350;52.316;10.530;2023-05-19T07:59:31;2.53;;;1.65;;
16478;SDS011;8350;52.316;10.530;2023-05-19T08:01:58;5.25;;;2.42;;
16478;SDS011;8350;52.316;10.530;2023-05-19T08:04:26;2.88;;;1.55;;
16478;SDS011;8350;52.316;10.530;2023-05-19T08:06:53;4.30;;;1.92;;
16478;SDS011;8350;52.316;10.530;2023-05-19T08:09:20;4.25;;;1.80;;
16478;SDS011;8350;52.316;10.530;2023-05-19T08:11:47;3.65;;;1.75;;
16478;SDS011;8350;52.316;10.530;2023-05-19T08:14:14;4.00;;;2.05;;
16478;SDS011;8350;52.316;10.530;2023-05-19T08:16:46;3.67;;;1.95;;
16478;SDS011;8350;52.316;10.530;2023-05-19T08:19:13;4.57;;;1.98;;
16478;SDS011;8350;52.316;10.530;2023-05-19T08:21:41;4.45;;;1.80;;
16478;SDS011;8350;52.316;10.530;2023-05-19T08:24:08;3.58;;;2.20;;
16478;SDS011;8350;52.316;10.530;2023-05-19T08:26:35;5.60;;;2.17;;
16478;SDS011;8350;52.316;10.530;2023-05-19T08:29:02;3.45;;;1.90;;
16478;SDS011;8350;52.316;10.530;2023-05-19T08:31:29;2.97;;;1.75;;
16478;SDS011;8350;52.316;10.530;2023-05-19T08:33:56;3.67;;;2.20;;
16478;SDS011;8350;52.316;10.530;2023-05-19T08:36:23;4.28;;;1.92;;
16478;SDS011;8350;52.316;10.530;2023-05-19T08:38:53;3.92;;;1.40;;
16478;SDS011;8350;52.316;10.530;2023-05-19T08:41:20;2.42;;;1.17;;
16478;SDS011;8350;52.316;10.530;2023-05-19T08:43:50;4.93;;;2.15;;
16478;SDS011;8350;52.316;10.530;2023-05-19T08:46:16;4.32;;;2.17;;
16478;SDS011;8350;52.316;10.530;2023-05-19T08:48:46;3.55;;;1.42;;
16478;SDS011;8350;52.316;10.530;2023-05-19T08:51:17;4.03;;;1.83;;
16478;SDS011;8350;52.316;10.530;2023-05-19T08:53:50;2.97;;;1.60;;
16478;SDS011;8350;52.316;10.530;2023-05-19T08:56:23;5.07;;;2.13;;
16478;SDS011;8350;52.316;10.530;2023-05-19T08:58:51;3.83;;;1.70;;
16478;SDS011;8350;52.316;10.530;2023-05-19T09:01:20;5.22;;;1.88;;
16478;SDS011;8350;52.316;10.530;2023-05-19T09:03:48;5.05;;;1.80;;
16478;SDS011;8350;52.316;10.530;2023-05-19T09:06:15;2.45;;;1.45;;
16478;SDS011;8350;52.316;10.530;2023-05-19T09:08:42;3.67;;;1.55;;
16478;SDS011;8350;52.316;10.530;2023-05-19T09:11:12;3.42;;;1.77;;
16478;SDS011;8350;52.316;10.530;2023-05-19T09:13:39;5.70;;;1.73;;
16478;SDS011;8350;52.316;10.530;2023-05-19T09:16:06;3.65;;;1.70;;
16478;SDS011;8350;52.316;10.530;2023-05-19T09:18:33;3.63;;;1.95;;
16478;SDS011;8350;52.316;10.530;2023-05-19T09:21:04;5.32;;;1.85;;
16478;SDS011;8350;52.316;10.530;2023-05-19T09:23:32;4.30;;;1.60;;
16478;SDS011;8350;52.316;10.530;2023-05-19T09:26:00;3.90;;;1.60;;
16478;SDS011;8350;52.316;10.530;2023-05-19T09:28:30;1.63;;;1.40;;
16478;SDS011;8350;52.316;10.530;2023-05-19T09:31:01;3.80;;;1.52;;
16478;SDS011;8350;52.316;10.530;2023-05-19T09:33:29;3.05;;;1.60;;
16478;SDS011;8350;52.316;10.530;2023-05-19T09:35:59;3.03;;;1.83;;
16478;SDS011;8350;52.316;10.530;2023-05-19T09:38:28;3.78;;;1.92;;
16478;SDS011;8350;52.316;10.530;2023-05-19T09:40:58;3.38;;;1.65;;
16478;SDS011;8350;52.316;10.530;2023-05-19T09:43:26;2.08;;;1.55;;
16478;SDS011;8350;52.316;10.530;2023-05-19T09:45:57;3.67;;;1.90;;
16478;SDS011;8350;52.316;10.530;2023-05-19T09:48:25;2.47;;;1.88;;
16478;SDS011;8350;52.316;10.530;2023-05-19T09:50:53;2.88;;;1.33;;
16478;SDS011;8350;52.316;10.530;2023-05-19T09:53:21;4.03;;;1.55;;
16478;SDS011;8350;52.316;10.530;2023-05-19T09:55:49;2.60;;;1.33;;
16478;SDS011;8350;52.316;10.530;2023-05-19T09:58:16;3.00;;;1.63;;
16478;SDS011;8350;52.316;10.530;2023-05-19T10:00:44;1.75;;;1.30;;
16478;SDS011;8350;52.316;10.530;2023-05-19T10:03:14;2.63;;;1.20;;
16478;SDS011;8350;52.316;10.530;2023-05-19T10:05:42;2.40;;;1.50;;
16478;SDS011;8350;52.316;10.530;2023-05-19T10:08:10;2.08;;;1.30;;
16478;SDS011;8350;52.316;10.530;2023-05-19T10:10:38;2.10;;;1.40;;
16478;SDS011;8350;52.316;10.530;2023-05-19T10:13:08;3.58;;;1.48;;
16478;SDS011;8350;52.316;10.530;2023-05-19T10:15:35;3.92;;;1.73;;
16478;SDS011;8350;52.316;10.530;2023-05-19T10:18:05;2.38;;;1.10;;
16478;SDS011;8350;52.316;10.530;2023-05-19T10:20:35;3.22;;;1.48;;
16478;SDS011;8350;52.316;10.530;2023-05-19T10:23:03;2.00;;;1.50;;
16478;SDS011;8350;52.316;10.530;2023-05-19T10:25:32;3.28;;;1.63;;
16478;SDS011;8350;52.316;10.530;2023-05-19T10:28:01;2.90;;;1.67;;
16478;SDS011;8350;52.316;10.530;2023-05-19T10:30:32;3.67;;;1.55;;
16478;SDS011;8350;52.316;10.530;2023-05-19T10:33:02;2.65;;;1.27;;
16478;SDS011;8350;52.316;10.530;2023-05-19T10:38:26;2.13;;;1.30;;
16478;SDS011;8350;52.316;10.530;2023-05-19T10:41:01;1.98;;;1.10;;
16478;SDS011;8350;52.316;10.530;2023-05-19T10:43:37;1.17;;;1.00;;
16478;SDS011;8350;52.316;10.530;2023-05-19T10:46:14;3.60;;;1.20;;
16478;SDS011;8350;52.316;10.530;2023-05-19T10:48:42;1.90;;;1.17;;
16478;SDS011;8350;52.316;10.530;2023-05-19T10:51:12;3.08;;;1.52;;
16478;SDS011;8350;52.316;10.530;2023-05-19T10:53:40;2.55;;;1.10;;
16478;SDS011;8350;52.316;10.530;2023-05-19T10:56:26;1.30;;;1.20;;
16478;SDS011;8350;52.316;10.530;2023-05-19T10:58:55;3.08;;;1.10;;
16478;SDS011;8350;52.316;10.530;2023-05-19T11:01:22;3.13;;;1.23;;
16478;SDS011;8350;52.316;10.530;2023-05-19T11:03:57;2.40;;;1.55;;
16478;SDS011;8350;52.316;10.530;2023-05-19T11:06:32;2.40;;;1.20;;
16478;SDS011;8350;52.316;10.530;2023-05-19T11:09:09;1.33;;;1.13;;
16478;SDS011;8350;52.316;10.530;2023-05-19T11:11:45;2.13;;;1.33;;
16478;SDS011;8350;52.316;10.530;2023-05-19T11:14:14;2.35;;;1.13;;
16478;SDS011;8350;52.316;10.530;2023-05-19T11:16:45;2.60;;;1.17;;
16478;SDS011;8350;52.316;10.530;2023-05-19T11:19:19;2.20;;;1.40;;
16478;SDS011;8350;52.316;10.530;2023-05-19T11:21:53;1.65;;;1.00;;
16478;SDS011;8350;52.316;10.530;2023-05-19T11:24:34;2.28;;;1.25;;
16478;SDS011;8350;52.316;10.530;2023-05-19T11:27:20;3.20;;;1.27;;
16478;SDS011;8350;52.316;10.530;2023-05-19T11:29:50;2.50;;;1.10;;
16478;SDS011;8350;52.316;10.530;2023-05-19T11:32:19;1.75;;;1.10;;
16478;SDS011;8350;52.316;10.530;2023-05-19T11:34:46;1.75;;;1.20;;
16478;SDS011;8350;52.316;10.530;2023-05-19T11:37:15;1.63;;;1.23;;
16478;SDS011;8350;52.316;10.530;2023-05-19T11:39:44;1.85;;;1.15;;
16478;SDS011;8350;52.316;10.530;2023-05-19T11:42:11;2.83;;;1.10;;
16478;SDS011;8350;52.316;10.530;2023-05-19T11:44:38;1.77;;;1.30;;
16478;SDS011;8350;52.316;10.530;2023-05-19T11:47:07;2.75;;;1.10;;
16478;SDS011;8350;52.316;10.530;2023-05-19T11:49:34;1.92;;;1.30;;
16478;SDS011;8350;52.316;10.530;2023-05-19T11:52:04;1.63;;;1.02;;
16478;SDS011;8350;52.316;10.530;2023-05-19T11:54:33;1.65;;;1.08;;
16478;SDS011;8350;52.316;10.530;2023-05-19T11:57:01;1.35;;;0.80;;
16478;SDS011;8350;52.316;10.530;2023-05-19T11:59:29;2.08;;;0.93;;
16478;SDS011;8350;52.316;10.530;2023-05-19T12:01:59;5.18;;;1.48;;
16478;SDS011;8350;52.316;10.530;2023-05-19T12:04:28;2.65;;;1.13;;
16478;SDS011;8350;52.316;10.530;2023-05-19T12:06:55;1.60;;;1.10;;
16478;SDS011;8350;52.316;10.530;2023-05-19T12:09:21;2.58;;;1.33;;
16478;SDS011;8350;52.316;10.530;2023-05-19T12:11:53;3.08;;;1.20;;
16478;SDS011;8350;52.316;10.530;2023-05-19T12:14:21;2.92;;;1.20;;
16478;SDS011;8350;52.316;10.530;2023-05-19T12:16:53;4.63;;;1.25;;
16478;SDS011;8350;52.316;10.530;2023-05-19T12:19:21;3.60;;;1.33;;
16478;SDS011;8350;52.316;10.530;2023-05-19T12:21:49;4.18;;;1.23;;
16478;SDS011;8350;52.316;10.530;2023-05-19T12:24:17;2.42;;;1.23;;
16478;SDS011;8350;52.316;10.530;2023-05-19T12:26:44;1.85;;;1.10;;
16478;SDS011;8350;52.316;10.530;2023-05-19T12:29:15;1.95;;;0.98;;
16478;SDS011;8350;52.316;10.530;2023-05-19T12:31:44;1.58;;;0.80;;
16478;SDS011;8350;52.316;10.530;2023-05-19T12:34:12;2.75;;;0.80;;
16478;SDS011;8350;52.316;10.530;2023-05-19T12:36:39;2.55;;;1.45;;
16478;SDS011;8350;52.316;10.530;2023-05-19T12:39:06;1.23;;;1.13;;
16478;SDS011;8350;52.316;10.530;2023-05-19T12:41:33;3.40;;;0.85;;
16478;SDS011;8350;52.316;10.530;2023-05-19T12:44:01;1.50;;;0.77;;
16478;SDS011;8350;52.316;10.530;2023-05-19T12:46:41;1.77;;;1.05;;
16478;SDS011;8350;52.316;10.530;2023-05-19T12:49:12;1.20;;;0.98;;
16478;SDS011;8350;52.316;10.530;2023-05-19T12:51:39;1.83;;;1.35;;
16478;SDS011;8350;52.316;10.530;2023-05-19T12:54:05;2.80;;;1.13;;
16478;SDS011;8350;52.316;10.530;2023-05-19T12:56:34;1.63;;;1.20;;
16478;SDS011;8350;52.316;10.530;2023-05-19T12:59:01;1.73;;;1.00;;
16478;SDS011;8350;52.316;10.530;2023-05-19T13:01:28;2.75;;;0.90;;
16478;SDS011;8350;52.316;10.530;2023-05-19T13:03:57;2.15;;;1.20;;
16478;SDS011;8350;52.316;10.530;2023-05-19T13:06:25;2.85;;;1.40;;
16478;SDS011;8350;52.316;10.530;2023-05-19T13:08:51;2.15;;;1.45;;
16478;SDS011;8350;52.316;10.530;2023-05-19T13:11:18;2.08;;;1.38;;
16478;SDS011;8350;52.316;10.530;2023-05-19T13:13:45;1.80;;;1.40;;
16478;SDS011;8350;52.316;10.530;2023-05-19T13:16:12;2.25;;;0.90;;
16478;SDS011;8350;52.316;10.530;2023-05-19T13:18:39;1.63;;;1.05;;
16478;SDS011;8350;52.316;10.530;2023-05-19T13:21:08;1.63;;;1.17;;
16478;SDS011;8350;52.316;10.530;2023-05-19T13:23:34;2.17;;;1.33;;
16478;SDS011;8350;52.316;10.530;2023-05-19T13:26:01;3.60;;;1.40;;
16478;SDS011;8350;52.316;10.530;2023-05-19T13:28:30;3.17;;;1.13;;
16478;SDS011;8350;52.316;10.530;2023-05-19T13:30:57;3.05;;;1.35;;
16478;SDS011;8350;52.316;10.530;2023-05-19T13:33:24;1.88;;;1.20;;
16478;SDS011;8350;52.316;10.530;2023-05-19T13:35:51;1.30;;;1.15;;
16478;SDS011;8350;52.316;10.530;2023-05-19T13:38:19;2.65;;;1.10;;
16478;SDS011;8350;52.316;10.530;2023-05-19T13:40:46;2.70;;;0.90;;
16478;SDS011;8350;52.316;10.530;2023-05-19T13:43:13;2.45;;;1.25;;
16478;SDS011;8350;52.316;10.530;2023-05-19T13:45:40;1.30;;;1.08;;
16478;SDS011;8350;52.316;10.530;2023-05-19T13:48:08;2.83;;;1.08;;
16478;SDS011;8350;52.316;10.530;2023-05-19T13:50:36;1.70;;;1.10;;
16478;SDS011;8350;52.316;10.530;2023-05-19T13:53:05;2.00;;;1.10;;
16478;SDS011;8350;52.316;10.530;2023-05-19T13:55:42;1.55;;;1.00;;
16478;SDS011;8350;52.316;10.530;2023-05-19T13:58:13;4.03;;;1.50;;
16478;SDS011;8350;52.316;10.530;2023-05-19T14:00:40;1.40;;;1.02;;
16478;SDS011;8350;52.316;10.530;2023-05-19T14:03:10;1.23;;;0.90;;
16478;SDS011;8350;52.316;10.530;2023-05-19T14:05:40;2.45;;;1.00;;
16478;SDS011;8350;52.316;10.530;2023-05-19T14:08:07;2.65;;;1.27;;
16478;SDS011;8350;52.316;10.530;2023-05-19T14:10:35;1.67;;;0.82;;
16478;SDS011;8350;52.316;10.530;2023-05-19T14:13:03;2.72;;;1.17;;
16478;SDS011;8350;52.316;10.530;2023-05-19T14:15:33;1.65;;;1.17;;
16478;SDS011;8350;52.316;10.530;2023-05-19T14:18:02;2.08;;;1.00;;
16478;SDS011;8350;52.316;10.530;2023-05-19T14:20:39;6.65;;;1.58;;
16478;SDS011;8350;52.316;10.530;2023-05-19T14:23:06;1.50;;;0.90;;
16478;SDS011;8350;52.316;10.530;2023-05-19T14:25:35;2.22;;;1.15;;
16478;SDS011;8350;52.316;10.530;2023-05-19T14:28:01;2.00;;;1.13;;
16478;SDS011;8350;52.316;10.530;2023-05-19T14:30:32;2.10;;;1.10;;
16478;SDS011;8350;52.316;10.530;2023-05-19T14:33:01;1.77;;;0.85;;
16478;SDS011;8350;52.316;10.530;2023-05-19T14:35:30;1.60;;;1.25;;
16478;SDS011;8350;52.316;10.530;2023-05-19T14:38:00;2.45;;;1.10;;
16478;SDS011;8350;52.316;10.530;2023-05-19T14:40:27;1.08;;;0.98;;
16478;SDS011;8350;52.316;10.530;2023-05-19T14:42:54;2.08;;;1.08;;
16478;SDS011;8350;52.316;10.530;2023-05-19T14:45:22;2.85;;;1.40;;
16478;SDS011;8350;52.316;10.530;2023-05-19T14:47:49;2.90;;;1.10;;
16478;SDS011;8350;52.316;10.530;2023-05-19T14:50:19;2.55;;;1.10;;
16478;SDS011;8350;52.316;10.530;2023-05-19T14:52:47;1.73;;;1.00;;
16478;SDS011;8350;52.316;10.530;2023-05-19T14:55:13;1.73;;;1.02;;
16478;SDS011;8350;52.316;10.530;2023-05-19T14:57:40;1.70;;;1.25;;
16478;SDS011;8350;52.316;10.530;2023-05-19T15:00:08;3.83;;;1.02;;
16478;SDS011;8350;52.316;10.530;2023-05-19T15:02:39;4.22;;;1.58;;